Time;durP1;ratioP1;P1;durP2;ratioP2;P2;SDS_P1;SDS_P2;PMS_P1;PMS_P2;Temp;Humidity;BMP_temperature;BMP_pressure;BME280_temperature;BME280_humidity;BME280_pressure;Samples;Min_cycle;Max_cycle;Signal;HPM_P1;HPM_P2
2023/03/04 00:00:05;;;;;;;73.07;31.73;;;;;;;6.03;nan;100761.44;4986305;28;20510;-77
2023/03/04 00:02:30;;;;;;;66.95;31.50;;;;;;;6.02;nan;100765.88;4990121;28;20033;-77
2023/03/04 00:04:55;;;;;;;65.78;30.85;;;;;;;6.03;nan;100759.63;4999226;28;20030;-77
2023/03/04 00:07:21;;;;;;;68.65;31.30;;;;;;;6.04;nan;100760.47;4982727;28;20046;-76
2023/03/04 00:09:46;;;;;;;72.22;31.00;;;;;;;5.94;nan;100751.13;4991409;28;20481;-77
2023/03/04 00:12:12;;;;;;;62.25;30.95;;;;;;;6.07;nan;100760.09;4991953;28;20037;-77
2023/03/04 00:14:37;;;;;;;65.63;29.98;;;;;;;6.08;nan;100765.16;5001084;28;20030;-76
2023/03/04 00:17:03;;;;;;;71.85;31.52;;;;;;;5.78;nan;100724.38;4999181;28;20446;-76
2023/03/04 00:19:29;;;;;;;67.82;31.75;;;;;;;5.95;nan;100747.50;5000377;28;20096;-76
2023/03/04 00:21:55;;;;;;;71.38;31.52;;;;;;;6.04;nan;100763.88;5003410;28;20121;-77
2023/03/04 00:24:20;;;;;;;64.05;31.73;;;;;;;5.86;nan;100730.28;5001191;28;20109;-77
2023/03/04 00:26:46;;;;;;;66.88;30.40;;;;;;;6.00;nan;100752.19;5002180;28;20396;-77
2023/03/04 00:29:11;;;;;;;68.18;31.52;;;;;;;6.03;nan;100758.84;4991199;28;20089;-76
2023/03/04 00:31:37;;;;;;;67.90;31.38;;;;;;;6.02;nan;100750.19;4998792;28;20024;-77
2023/03/04 00:34:02;;;;;;;75.90;31.83;;;;;;;6.09;nan;100766.75;4995834;28;20026;-77
2023/03/04 00:36:27;;;;;;;65.25;31.52;;;;;;;6.07;nan;100754.88;4999939;28;20110;-77
2023/03/04 00:38:53;;;;;;;71.88;33.28;;;;;;;6.01;nan;100745.97;4993327;28;20080;-77
2023/03/04 00:41:18;;;;;;;73.63;32.55;;;;;;;6.00;nan;100751.38;4996559;28;20443;-77
2023/03/04 00:43:44;;;;;;;75.03;33.45;;;;;;;6.04;nan;100755.25;4998182;28;20031;-78
2023/03/04 00:46:09;;;;;;;79.05;33.53;;;;;;;6.06;nan;100756.69;4989533;28;20030;-76
2023/03/04 00:48:34;;;;;;;72.90;32.35;;;;;;;5.97;nan;100735.06;4996730;28;20030;-77
2023/03/04 00:51:00;;;;;;;69.72;33.25;;;;;;;6.05;nan;100751.63;4984604;28;20701;-75
2023/03/04 00:53:25;;;;;;;72.72;32.80;;;;;;;5.91;nan;100732.34;4998145;28;20084;-77
2023/03/04 00:55:51;;;;;;;69.25;32.00;;;;;;;5.98;nan;100741.09;4998270;28;20034;-77
2023/03/04 00:58:16;;;;;;;66.75;32.08;;;;;;;5.92;nan;100734.78;4994830;28;20022;-77
2023/03/04 01:00:41;;;;;;;64.88;31.55;;;;;;;5.77;nan;100707.91;5000811;28;20045;-76
2023/03/04 01:03:07;;;;;;;71.45;31.90;;;;;;;5.91;nan;100729.72;5000204;28;20112;-76
2023/03/04 01:05:34;;;;;;;75.22;32.47;;;;;;;5.84;nan;100718.41;5000652;28;20113;-78
2023/03/04 01:08:00;;;;;;;70.43;32.42;;;;;;;5.65;nan;100691.91;4996574;28;20046;-77
2023/03/04 01:10:25;;;;;;;72.88;33.38;;;;;;;5.90;nan;100730.75;4990361;28;20032;-76
2023/03/04 01:12:51;;;;;;;66.18;31.75;;;;;;;5.94;nan;100734.63;4980579;28;20121;-76
2023/03/04 01:15:16;;;;;;;77.28;33.22;;;;;;;5.84;nan;100721.84;4983804;28;20026;-76
2023/03/04 01:17:42;;;;;;;73.70;32.53;;;;;;;5.82;nan;100715.16;5003607;28;20029;-76
2023/03/04 01:20:08;;;;;;;72.07;32.90;;;;;;;5.86;nan;100724.25;4998130;28;20499;-77
2023/03/04 01:22:33;;;;;;;69.72;33.17;;;;;;;5.88;nan;100725.69;5001897;28;20042;-76
2023/03/04 01:24:59;;;;;;;71.82;32.85;;;;;;;5.84;nan;100719.22;5002962;28;20030;-77
2023/03/04 01:27:24;;;;;;;69.00;33.40;;;;;;;5.89;nan;100734.31;4998520;28;20026;-77
2023/03/04 01:29:50;;;;;;;314.58;81.10;;;;;;;5.79;nan;100708.50;4997712;28;20353;-76
2023/03/04 01:32:15;;;;;;;101.20;43.00;;;;;;;6.14;nan;100713.91;4997263;28;20076;-77
2023/03/04 01:34:40;;;;;;;100.30;43.55;;;;;;;6.38;nan;100710.88;5000681;28;20486;-76
2023/03/04 01:37:06;;;;;;;85.63;36.88;;;;;;;6.33;nan;100709.84;4997090;28;20109;-77
2023/03/04 01:39:31;;;;;;;78.53;35.00;;;;;;;6.29;nan;100712.00;4989338;28;20030;-76
2023/03/04 01:41:57;;;;;;;72.00;34.13;;;;;;;6.09;nan;100695.34;4979631;28;20046;-77
2023/03/04 01:44:22;;;;;;;76.60;34.88;;;;;;;6.07;nan;100700.75;4978708;28;20172;-77
2023/03/04 01:46:51;;;;;;;67.05;32.78;;;;;;;6.09;nan;100713.66;4996817;28;20092;-76
2023/03/04 01:49:17;;;;;;;72.45;33.28;;;;;;;5.98;nan;100707.13;4999470;28;20034;-76
2023/03/04 01:51:48;;;;;;;73.28;32.92;;;;;;;5.93;nan;100694.56;5000785;28;20496;-76
2023/03/04 01:54:14;;;;;;;67.03;33.08;;;;;;;6.00;nan;100712.97;5000157;28;20092;-77
2023/03/04 01:56:40;;;;;;;65.97;32.08;;;;;;;5.95;nan;100715.34;4988340;28;20113;-77
2023/03/04 01:59:06;;;;;;;70.40;32.80;;;;;;;5.97;nan;100714.16;4999326;28;20453;-77
2023/03/04 02:01:32;;;;;;;70.05;32.80;;;;;;;5.85;nan;100693.91;4997961;28;20030;-76
2023/03/04 02:03:57;;;;;;;66.95;32.75;;;;;;;5.85;nan;100697.31;4982385;28;20032;-76
2023/03/04 02:06:23;;;;;;;71.85;31.90;;;;;;;5.79;nan;100694.63;4995991;28;20034;-76
2023/03/04 02:08:49;;;;;;;76.10;34.88;;;;;;;5.88;nan;100703.97;4981456;28;20030;-76
2023/03/04 02:11:14;;;;;;;68.32;33.83;;;;;;;5.91;nan;100709.66;4999467;28;20721;-77
2023/03/04 02:13:40;;;;;;;69.15;33.63;;;;;;;5.80;nan;100697.06;4994329;28;20032;-76
2023/03/04 02:16:05;;;;;;;66.30;32.92;;;;;;;5.68;nan;100681.06;4998661;28;20109;-76
2023/03/04 02:18:31;;;;;;;71.20;33.38;;;;;;;5.82;nan;100695.09;4982291;28;20022;-75
2023/03/04 02:21:02;;;;;;;69.75;31.95;;;;;;;5.86;nan;100704.16;4998691;28;20485;-77
2023/03/04 02:23:49;;;;;;;64.28;30.70;;;;;;;5.84;nan;100702.72;4998529;28;20074;-75
2023/03/04 02:26:25;;;;;;;67.75;30.33;;;;;;;5.71;nan;100683.31;4996849;28;20038;-77
2023/03/04 02:28:53;;;;;;;72.47;31.17;;;;;;;5.73;nan;100690.97;4999549;28;20033;-76
2023/03/04 02:31:29;;;;;;;70.18;31.95;;;;;;;5.82;nan;100697.69;4997498;28;20496;-76
2023/03/04 02:33:57;;;;;;;64.97;30.95;;;;;;;5.81;nan;100698.69;4983515;28;20049;-78
2023/03/04 02:36:23;;;;;;;68.93;31.52;;;;;;;5.69;nan;100680.06;4996137;28;20030;-76
2023/03/04 02:38:53;;;;;;;65.13;30.05;;;;;;;5.62;nan;100676.56;4997288;28;20070;-76
2023/03/04 02:41:22;;;;;;;75.40;33.50;;;;;;;5.71;nan;100693.75;4998615;28;20125;-77
2023/03/04 02:43:50;;;;;;;69.18;31.67;;;;;;;5.76;nan;100698.44;4985772;28;20033;-78
2023/03/04 02:46:16;;;;;;;71.82;31.73;;;;;;;5.76;nan;100694.00;4999428;28;20107;-76
2023/03/04 02:48:42;;;;;;;68.55;31.83;;;;;;;5.71;nan;100685.91;5000911;28;20073;-76
2023/03/04 02:51:07;;;;;;;73.75;32.63;;;;;;;5.75;nan;100694.22;5001657;28;20480;-77
2023/03/04 02:53:33;;;;;;;71.72;32.97;;;;;;;5.74;nan;100682.13;4987882;28;20052;-75
2023/03/04 02:55:58;;;;;;;77.60;33.97;;;;;;;5.66;nan;100669.19;4997348;28;20058;-76
2023/03/04 02:58:23;;;;;;;80.53;34.10;;;;;;;5.69;nan;100669.63;4997298;28;20030;-76
2023/03/04 03:00:49;;;;;;;75.97;34.60;;;;;;;5.74;nan;100676.91;4998569;28;20018;-77
2023/03/04 03:03:14;;;;;;;82.10;34.30;;;;;;;5.71;nan;100669.44;4982770;28;20033;-75
2023/03/04 03:05:40;;;;;;;77.32;34.35;;;;;;;5.67;nan;100668.97;5000108;28;20031;-75
2023/03/04 03:08:06;;;;;;;90.03;33.60;;;;;;;5.72;nan;100674.50;4998306;28;20046;-76
2023/03/04 03:10:32;;;;;;;94.45;36.03;;;;;;;5.80;nan;100680.59;4994055;28;20029;-76
2023/03/04 03:12:57;;;;;;;84.82;35.50;;;;;;;5.73;nan;100676.09;4994410;28;20067;-75
2023/03/04 03:15:23;;;;;;;94.82;36.10;;;;;;;5.72;nan;100677.09;4995061;28;20383;-77
2023/03/04 03:17:49;;;;;;;88.20;36.72;;;;;;;5.69;nan;100669.63;4995741;28;20502;-77
2023/03/04 03:20:15;;;;;;;86.93;36.80;;;;;;;5.79;nan;100678.97;4997212;28;20026;-76
2023/03/04 03:22:41;;;;;;;96.68;37.65;;;;;;;5.81;nan;100682.19;4994572;28;20053;-76
2023/03/04 03:25:09;;;;;;;88.13;36.10;;;;;;;5.77;nan;100687.00;4996393;28;20425;-76
2023/03/04 03:27:34;;;;;;;96.10;38.78;;;;;;;5.76;nan;100677.53;4985880;28;20040;-76
2023/03/04 03:30:00;;;;;;;100.60;39.10;;;;;;;5.76;nan;100680.13;4998959;28;20396;-76
2023/03/04 03:32:26;;;;;;;100.10;38.67;;;;;;;5.71;nan;100672.84;4978604;28;20173;-76
2023/03/04 03:34:51;;;;;;;105.80;41.97;;;;;;;5.65;nan;100660.56;4998463;28;20022;-76
2023/03/04 03:37:16;;;;;;;102.63;40.10;;;;;;;5.73;nan;100676.09;4984014;28;20033;-76
2023/03/04 03:39:42;;;;;;;100.22;39.60;;;;;;;5.75;nan;100674.09;4990455;28;20030;-76
2023/03/04 03:42:07;;;;;;;105.88;40.95;;;;;;;5.69;nan;100661.78;4999940;28;20105;-76
2023/03/04 03:44:32;;;;;;;101.13;40.20;;;;;;;5.72;nan;100674.50;4984275;28;20550;-77
2023/03/04 03:46:58;;;;;;;105.28;40.30;;;;;;;5.75;nan;100679.34;4997970;28;20034;-77
2023/03/04 03:49:23;;;;;;;107.07;40.45;;;;;;;5.67;nan;100671.59;4999422;28;20389;-77
2023/03/04 03:51:49;;;;;;;99.15;40.47;;;;;;;5.68;nan;100667.22;5003830;28;20392;-76
2023/03/04 03:54:14;;;;;;;101.78;39.30;;;;;;;5.75;nan;100679.34;5003059;28;20088;-76
2023/03/04 03:56:40;;;;;;;103.40;38.50;;;;;;;5.71;nan;100674.66;5000440;28;20428;-76
2023/03/04 03:59:05;;;;;;;96.85;37.25;;;;;;;5.67;nan;100666.38;4998322;28;20570;-76
2023/03/04 04:01:32;;;;;;;102.22;39.47;;;;;;;5.65;nan;100662.34;4997984;28;20176;-76
2023/03/04 04:03:58;;;;;;;96.35;39.75;;;;;;;5.65;nan;100662.34;4998784;28;20496;-76
2023/03/04 04:06:24;;;;;;;96.88;39.00;;;;;;;5.65;nan;100663.16;4999631;28;20038;-76
2023/03/04 04:08:49;;;;;;;93.32;39.15;;;;;;;5.64;nan;100658.13;5000585;28;20030;-76
2023/03/04 04:11:14;;;;;;;94.80;38.67;;;;;;;5.67;nan;100662.97;4983155;28;20026;-76
2023/03/04 04:13:40;;;;;;;101.43;40.13;;;;;;;5.65;nan;100660.56;5000686;28;20033;-76
2023/03/04 04:16:06;;;;;;;98.72;38.95;;;;;;;5.64;nan;100652.88;4984023;28;20032;-76
2023/03/04 04:18:31;;;;;;;96.30;38.78;;;;;;;5.61;nan;100648.84;4991646;28;20029;-78
2023/03/04 04:20:56;;;;;;;101.65;39.47;;;;;;;5.69;nan;100653.94;4985763;28;20099;-76
2023/03/04 04:23:22;;;;;;;97.55;39.00;;;;;;;5.63;nan;100644.25;4997378;28;20034;-77
2023/03/04 04:25:47;;;;;;;93.53;38.47;;;;;;;5.70;nan;100657.38;5001153;28;20029;-77
2023/03/04 04:28:13;;;;;;;94.25;38.25;;;;;;;5.63;nan;100652.09;4998374;28;20026;-76
2023/03/04 04:30:39;;;;;;;98.68;38.50;;;;;;;5.59;nan;100647.41;4999849;28;20018;-76
2023/03/04 04:33:04;;;;;;;86.20;36.65;;;;;;;5.64;nan;100653.69;5001759;28;20148;-77
2023/03/04 04:35:32;;;;;;;96.93;39.15;;;;;;;5.49;nan;100629.44;4999550;28;20046;-77
2023/03/04 04:37:57;;;;;;;95.32;38.88;;;;;;;5.56;nan;100643.38;5001213;28;20033;-76
2023/03/04 04:40:22;;;;;;;97.03;39.25;;;;;;;5.52;nan;100636.91;5001819;28;20035;-76
2023/03/04 04:42:48;;;;;;;102.93;40.17;;;;;;;5.52;nan;100639.50;5003479;28;20018;-77
2023/03/04 04:45:13;;;;;;;101.82;38.72;;;;;;;5.54;nan;100640.13;5003167;28;20033;-75
2023/03/04 04:47:39;;;;;;;98.47;38.60;;;;;;;5.54;nan;100643.56;4982102;28;20511;-76
2023/03/04 04:50:04;;;;;;;98.47;41.22;;;;;;;5.50;nan;100641.50;5000957;28;20045;-76
2023/03/04 04:52:30;;;;;;;102.72;39.65;;;;;;;5.47;nan;100644.47;5002727;28;20053;-78
2023/03/04 04:54:55;;;;;;;100.28;38.80;;;;;;;5.53;nan;100644.56;5001597;28;20140;-76
2023/03/04 04:57:21;;;;;;;97.35;38.97;;;;;;;5.41;nan;100626.94;5002449;28;20022;-76
2023/03/04 04:59:46;;;;;;;98.57;39.10;;;;;;;5.42;nan;100628.56;4999799;28;20104;-76
2023/03/04 05:02:13;;;;;;;107.15;41.17;;;;;;;5.49;nan;100645.09;4977880;28;20400;-76
2023/03/04 05:04:38;;;;;;;101.93;39.58;;;;;;;5.34;nan;100629.50;4979868;28;20041;-76
2023/03/04 05:07:03;;;;;;;111.40;41.55;;;;;;;5.42;nan;100644.22;4984868;28;20054;-76
2023/03/04 05:09:29;;;;;;;109.00;41.65;;;;;;;5.36;nan;100631.91;5001580;28;20036;-76
2023/03/04 05:11:54;;;;;;;107.93;40.25;;;;;;;5.28;nan;100617.16;4981718;28;20148;-75
2023/03/04 05:14:20;;;;;;;103.20;40.63;;;;;;;5.36;nan;100645.75;4988777;28;20088;-76
2023/03/04 05:16:45;;;;;;;110.53;40.83;;;;;;;5.29;nan;100637.03;4999634;28;20092;-76
2023/03/04 05:19:10;;;;;;;103.43;41.38;;;;;;;5.06;nan;100601.47;5000254;28;20026;-76
2023/03/04 05:21:36;;;;;;;106.18;39.80;;;;;;;5.24;nan;100632.41;4977933;28;20116;-76
2023/03/04 05:24:01;;;;;;;112.20;41.83;;;;;;;5.27;nan;100639.06;4998242;28;20038;-76
2023/03/04 05:26:26;;;;;;;110.53;42.38;;;;;;;5.27;nan;100646.88;4984190;28;20574;-76
2023/03/04 05:28:52;;;;;;;120.40;43.83;;;;;;;5.26;nan;100637.41;5002595;28;20026;-76
2023/03/04 05:31:17;;;;;;;117.80;43.08;;;;;;;5.16;nan;100627.28;4986460;28;20475;-76
2023/03/04 05:33:43;;;;;;;121.18;43.67;;;;;;;5.16;nan;100629.88;4989177;28;20417;-76
2023/03/04 05:36:09;;;;;;;122.40;44.70;;;;;;;5.16;nan;100635.09;4989598;28;20056;-76
2023/03/04 05:38:34;;;;;;;120.45;44.53;;;;;;;5.17;nan;100634.13;4985010;28;20028;-76
2023/03/04 05:41:03;;;;;;;128.85;45.47;;;;;;;5.22;nan;100638.78;4982069;28;20056;-75
2023/03/04 05:43:30;;;;;;;125.82;44.58;;;;;;;5.15;nan;100638.72;4999324;28;20026;-76
2023/03/04 05:45:55;;;;;;;139.25;47.63;;;;;;;5.16;nan;100648.16;4995692;28;20104;-76
2023/03/04 05:48:21;;;;;;;137.85;49.38;;;;;;;5.21;nan;100661.47;4989138;28;20787;-76
2023/03/04 05:50:52;;;;;;;134.32;45.13;;;;;;;5.20;nan;100665.06;4999340;28;20026;-77
2023/03/04 05:53:18;;;;;;;148.45;47.13;;;;;;;5.06;nan;100648.44;4994501;28;20085;-76
2023/03/04 05:55:46;;;;;;;151.82;48.30;;;;;;;5.13;nan;100658.16;4980354;28;20030;-77
2023/03/04 05:58:11;;;;;;;139.75;46.25;;;;;;;5.17;nan;100664.63;4989087;28;20022;-77
2023/03/04 06:00:36;;;;;;;140.80;44.55;;;;;;;5.17;nan;100656.78;4993992;28;20545;-77
2023/03/04 06:03:02;;;;;;;146.98;45.60;;;;;;;5.16;nan;100666.44;4979080;28;20098;-77
2023/03/04 06:05:28;;;;;;;143.65;43.83;;;;;;;5.02;nan;100641.16;4996740;28;20022;-77
2023/03/04 06:07:53;;;;;;;138.23;43.70;;;;;;;5.11;nan;100656.53;4999852;28;20473;-77
2023/03/04 06:10:18;;;;;;;148.23;43.50;;;;;;;5.07;nan;100652.66;5000355;28;20033;-77
2023/03/04 06:12:44;;;;;;;127.97;43.63;;;;;;;5.09;nan;100657.72;5000595;28;20030;-77
2023/03/04 06:15:10;;;;;;;131.40;42.42;;;;;;;5.17;nan;100665.44;4996657;28;20037;-78
2023/03/04 06:17:38;;;;;;;139.45;40.97;;;;;;;5.16;nan;100665.63;4975636;28;20029;-77
2023/03/04 06:20:05;;;;;;;120.80;41.55;;;;;;;5.05;nan;100659.88;4996977;28;20034;-77
2023/03/04 06:22:31;;;;;;;126.53;41.28;;;;;;;5.06;nan;100668.53;4999459;28;20080;-78
2023/03/04 06:24:57;;;;;;;120.72;42.60;;;;;;;5.00;nan;100653.56;4997500;28;20056;-78
2023/03/04 06:27:22;;;;;;;124.20;43.97;;;;;;;5.01;nan;100658.63;4997864;28;20388;-77
2023/03/04 06:29:48;;;;;;;135.00;43.63;;;;;;;5.11;nan;100682.63;4982187;28;20033;-76
2023/03/04 06:32:13;;;;;;;134.55;44.95;;;;;;;5.09;nan;100668.16;4998353;28;20392;-77
2023/03/04 06:34:38;;;;;;;129.98;44.25;;;;;;;5.11;nan;100674.81;4998183;28;20038;-78
2023/03/04 06:37:04;;;;;;;125.60;43.00;;;;;;;5.17;nan;100688.13;4998941;28;20029;-76
2023/03/04 06:39:29;;;;;;;129.85;45.40;;;;;;;5.07;nan;100676.16;4997482;28;20027;-77
2023/03/04 06:41:54;;;;;;;128.35;43.70;;;;;;;5.18;nan;100692.34;4981103;28;20040;-76
2023/03/04 06:44:20;;;;;;;127.15;43.85;;;;;;;5.20;nan;100691.19;4996155;28;20034;-77
2023/03/04 06:46:45;;;;;;;134.82;43.22;;;;;;;5.14;nan;100681.47;4980354;28;20022;-77
2023/03/04 06:49:10;;;;;;;154.07;43.55;;;;;;;5.19;nan;100694.78;4999238;28;20085;-76
2023/03/04 06:51:36;;;;;;;134.40;41.75;;;;;;;5.18;nan;100693.16;4998533;28;20389;-77
2023/03/04 06:54:01;;;;;;;129.25;41.90;;;;;;;5.25;nan;100699.28;4977667;28;20034;-76
2023/03/04 06:56:27;;;;;;;137.02;42.80;;;;;;;5.19;nan;100689.56;4997898;28;20050;-78
2023/03/04 06:58:52;;;;;;;130.02;43.10;;;;;;;5.20;nan;100685.97;4997437;28;20045;-77
2023/03/04 07:01:23;;;;;;;118.75;40.10;;;;;;;5.23;nan;100687.41;4997448;28;20106;-78
2023/03/04 07:03:50;;;;;;;108.00;40.28;;;;;;;5.18;nan;100685.34;5000374;28;20034;-78
2023/03/04 07:06:19;;;;;;;118.30;40.38;;;;;;;5.28;nan;100696.28;4997450;28;20026;-77
2023/03/04 07:08:45;;;;;;;112.00;41.17;;;;;;;5.19;nan;100694.78;4997715;28;20480;-77
2023/03/04 07:11:10;;;;;;;122.88;42.00;;;;;;;5.24;nan;100689.84;4982774;28;20519;-77
2023/03/04 07:13:39;;;;;;;122.82;44.72;;;;;;;5.24;nan;100683.78;5002239;28;20038;-77
2023/03/04 07:16:11;;;;;;;118.53;42.00;;;;;;;5.35;nan;100700.78;4986034;28;20025;-77
2023/03/04 07:18:36;;;;;;;121.85;40.75;;;;;;;5.36;nan;100690.16;5005116;28;20552;-77
2023/03/04 07:21:02;;;;;;;116.55;41.00;;;;;;;5.30;nan;100680.47;5005009;28;20032;-77
2023/03/04 07:23:28;;;;;;;122.35;41.35;;;;;;;5.40;nan;100691.41;4999210;28;20045;-78
2023/03/04 07:25:54;;;;;;;125.43;42.70;;;;;;;5.39;nan;100679.34;5002113;28;20045;-77
2023/03/04 07:28:19;;;;;;;120.45;41.33;;;;;;;5.40;nan;100685.38;4999580;28;20118;-77
2023/03/04 07:30:45;;;;;;;121.53;41.78;;;;;;;5.51;nan;100708.44;4998984;28;20140;-77
2023/03/04 07:33:10;;;;;;;122.80;40.67;;;;;;;5.40;nan;100677.56;4998331;28;20022;-77
2023/03/04 07:35:36;;;;;;;115.63;40.88;;;;;;;5.51;nan;100690.16;5001151;28;20030;-77
2023/03/04 07:38:01;;;;;;;114.25;40.42;;;;;;;5.59;nan;100700.47;4992218;28;20019;-76
2023/03/04 07:40:27;;;;;;;120.93;40.13;;;;;;;5.53;nan;100678.50;5001596;28;20112;-78
2023/03/04 07:42:54;;;;;;;114.90;40.00;;;;;;;5.59;nan;100684.78;4990610;28;20127;-77
2023/03/04 07:45:20;;;;;;;111.93;41.15;;;;;;;5.62;nan;100687.03;4999651;28;20033;-78
2023/03/04 07:47:45;;;;;;;107.55;40.10;;;;;;;5.65;nan;100686.69;5004032;28;20030;-76
2023/03/04 07:50:12;;;;;;;114.07;40.67;;;;;;;5.72;nan;100692.78;5001335;28;20091;-77
2023/03/04 07:52:42;;;;;;;103.40;38.90;;;;;;;5.66;nan;100683.06;4999290;28;20436;-77
2023/03/04 07:55:08;;;;;;;111.75;38.58;;;;;;;5.69;nan;100680.06;5000158;28;20026;-77
2023/03/04 07:57:34;;;;;;;106.32;39.10;;;;;;;5.82;nan;100689.03;4998360;28;20121;-76
2023/03/04 07:59:59;;;;;;;99.50;36.97;;;;;;;5.71;nan;100664.22;4981459;28;20121;-76
2023/03/04 08:02:25;;;;;;;100.40;39.00;;;;;;;5.80;nan;100675.38;4998012;28;20033;-76
2023/03/04 08:04:50;;;;;;;99.35;38.38;;;;;;;5.87;nan;100678.84;4997982;28;20036;-76
2023/03/04 08:07:15;;;;;;;92.88;36.15;;;;;;;5.84;nan;100674.81;4998155;28;20170;-77
2023/03/04 08:09:41;;;;;;;90.60;36.20;;;;;;;5.91;nan;100678.28;5001794;28;20041;-76
2023/03/04 08:12:06;;;;;;;97.18;37.90;;;;;;;5.98;nan;100683.59;4998819;28;20058;-76
2023/03/04 08:14:32;;;;;;;101.80;39.08;;;;;;;5.92;nan;100660.78;5000632;28;20032;-76
2023/03/04 08:16:58;;;;;;;94.10;38.60;;;;;;;6.06;nan;100680.88;5000961;28;20034;-77
2023/03/04 08:19:24;;;;;;;104.05;39.95;;;;;;;6.00;nan;100667.72;5001560;28;20531;-76
2023/03/04 08:21:49;;;;;;;107.65;42.08;;;;;;;6.12;nan;100689.75;5003255;28;20125;-76
2023/03/04 08:24:14;;;;;;;106.65;41.83;;;;;;;6.15;nan;100690.19;4998274;28;20168;-76
2023/03/04 08:26:44;;;;;;;91.65;37.67;;;;;;;6.23;nan;100697.09;4999408;28;20536;-77
2023/03/04 08:29:16;;;;;;;102.65;40.75;;;;;;;6.14;nan;100679.91;5000443;28;20038;-76
2023/03/04 08:31:41;;;;;;;93.68;38.85;;;;;;;6.14;nan;100679.91;4998816;28;20048;-76
2023/03/04 08:34:09;;;;;;;90.32;38.55;;;;;;;6.29;nan;100700.75;5000925;28;20851;-76
2023/03/04 08:36:35;;;;;;;96.78;39.03;;;;;;;6.20;nan;100679.13;5000611;28;20025;-77
2023/03/04 08:39:00;;;;;;;88.68;37.47;;;;;;;6.32;nan;100692.50;5001187;28;20428;-77
2023/03/04 08:41:26;;;;;;;85.45;36.08;;;;;;;6.33;nan;100691.53;4999738;28;20026;-76
2023/03/04 08:43:51;;;;;;;88.53;36.38;;;;;;;6.31;nan;100683.06;4982451;28;20018;-77
2023/03/04 08:46:17;;;;;;;85.40;36.08;;;;;;;6.32;nan;100668.97;5002119;28;20036;-77
2023/03/04 08:48:42;;;;;;;92.53;37.28;;;;;;;6.42;nan;100687.78;4995692;28;20018;-76
2023/03/04 08:51:13;;;;;;;82.85;36.60;;;;;;;6.48;nan;100689.63;4986587;28;20034;-77
2023/03/04 08:53:39;;;;;;;85.63;37.58;;;;;;;6.50;nan;100686.81;4999220;28;20026;-76
2023/03/04 08:56:05;;;;;;;83.20;37.25;;;;;;;6.54;nan;100686.25;5000823;28;20037;-75
2023/03/04 08:58:31;;;;;;;90.13;38.97;;;;;;;6.54;nan;100678.41;4982966;28;20022;-76
2023/03/04 09:00:59;;;;;;;90.15;38.45;;;;;;;6.65;nan;100686.72;4998946;28;20435;-76
2023/03/04 09:03:24;;;;;;;81.80;36.78;;;;;;;6.65;nan;100674.44;4998441;28;20480;-76
2023/03/04 09:05:50;;;;;;;86.10;36.70;;;;;;;6.73;nan;100679.53;5001831;28;20041;-77
2023/03/04 09:08:16;;;;;;;76.55;34.92;;;;;;;6.73;nan;100669.06;5000396;28;20042;-76
2023/03/04 09:10:43;;;;;;;82.57;36.30;;;;;;;6.81;nan;100670.72;4982619;28;20034;-76
2023/03/04 09:13:14;;;;;;;75.00;35.03;;;;;;;7.14;nan;100731.09;4995811;28;20112;-76
2023/03/04 09:15:44;;;;;;;76.57;34.83;;;;;;;6.99;nan;100685.91;4999462;28;20023;-76
2023/03/04 09:18:10;;;;;;;73.95;33.97;;;;;;;7.00;nan;100671.81;4996826;28;20125;-77
2023/03/04 09:20:35;;;;;;;74.80;33.97;;;;;;;7.06;nan;100678.88;5001346;28;20060;-76
2023/03/04 09:23:01;;;;;;;76.43;35.47;;;;;;;7.08;nan;100670.84;4990202;28;20022;-78
2023/03/04 09:25:26;;;;;;;79.93;34.20;;;;;;;7.11;nan;100663.41;4999200;28;20029;-77
2023/03/04 09:27:52;;;;;;;70.95;33.53;;;;;;;7.19;nan;100659.81;4982012;28;20026;-77
2023/03/04 09:30:18;;;;;;;71.10;32.75;;;;;;;7.25;nan;100664.25;5002023;28;20026;-77
2023/03/04 09:32:43;;;;;;;66.55;32.55;;;;;;;7.38;nan;100666.94;4989457;28;20435;-76
2023/03/04 09:35:09;;;;;;;74.75;34.40;;;;;;;7.42;nan;100662.09;4996789;28;20037;-77
2023/03/04 09:37:35;;;;;;;70.20;31.63;;;;;;;7.53;nan;100676.44;4998835;28;20025;-77
2023/03/04 09:40:01;;;;;;;74.00;32.95;;;;;;;7.52;nan;100654.69;4997417;28;20030;-77
2023/03/04 09:42:34;;;;;;;72.30;34.15;;;;;;;;;;4981203;28;20037;-77
2023/03/04 09:45:02;;;;;;;64.80;31.40;;;;;;;7.67;nan;100657.13;4999329;28;20494;-76
2023/03/04 09:47:28;;;;;;;68.93;32.80;;;;;;;7.50;nan;100613.97;4998676;28;20045;-78
2023/03/04 09:49:59;;;;;;;76.63;35.83;;;;;;;7.71;nan;100650.47;5000268;28;20025;-77
2023/03/04 09:52:43;;;;;;;68.63;34.05;;;;;;;7.87;nan;100668.41;4994578;28;20037;-77
2023/03/04 09:55:12;;;;;;;64.97;31.27;;;;;;;7.95;nan;100659.56;4997369;28;20110;-77
2023/03/04 09:58:06;;;;;;;60.63;31.88;;;;;;;7.96;nan;100644.66;4998558;28;20156;-77
2023/03/04 10:00:44;;;;;;;62.08;30.17;;;;;;;8.13;nan;100651.09;4997467;28;20030;-77
2023/03/04 10:03:24;;;;;;;59.20;29.77;;;;;;;8.07;nan;100636.97;5001627;28;20030;-77
2023/03/04 10:05:49;;;;;;;63.20;31.38;;;;;;;8.23;nan;100646.22;4998926;28;20037;-77
2023/03/04 10:08:41;;;;;;;57.42;29.63;;;;;;;8.26;nan;100634.53;4996021;28;20400;-77
2023/03/04 10:11:24;;;;;;;61.63;30.48;;;;;;;8.41;nan;100650.09;4997189;28;20030;-77
2023/03/04 10:14:02;;;;;;;55.72;28.65;;;;;;;8.45;nan;100643.41;5002911;28;20096;-77
2023/03/04 10:16:40;;;;;;;58.28;29.88;;;;;;;8.51;nan;100642.59;4977730;28;20025;-77
2023/03/04 10:19:17;;;;;;;54.33;27.40;;;;;;;8.58;nan;100646.03;4979174;28;20026;-77
2023/03/04 10:21:49;;;;;;;56.40;28.10;;;;;;;8.56;nan;100639.38;4998933;28;20060;-77
2023/03/04 10:24:17;;;;;;;61.45;30.23;;;;;;;8.57;nan;100612.09;5001176;28;20476;-77
2023/03/04 10:26:51;;;;;;;60.55;30.38;;;;;;;8.67;nan;100636.94;4978397;28;20040;-77
2023/03/04 10:29:23;;;;;;;61.00;30.42;;;;;;;8.64;nan;100618.13;4981178;28;20025;-78
2023/03/04 10:31:49;;;;;;;64.35;30.08;;;;;;;8.63;nan;100617.34;4997087;28;20041;-77
2023/03/04 10:34:16;;;;;;;61.92;29.30;;;;;;;8.76;nan;100620.94;4996073;28;20133;-77
2023/03/04 10:37:00;;;;;;;63.60;30.25;;;;;;;8.73;nan;100620.31;4997376;28;20025;-77
2023/03/04 10:39:28;;;;;;;65.68;32.42;;;;;;;8.80;nan;100615.06;4985995;28;20030;-78
2023/03/04 10:42:15;;;;;;;59.70;29.60;;;;;;;8.85;nan;100610.00;4988971;28;20022;-77
2023/03/04 10:44:52;;;;;;;62.28;30.85;;;;;;;8.78;nan;100584.78;5001725;28;20476;-77
2023/03/04 10:47:18;;;;;;;62.17;30.65;;;;;;;8.89;nan;100594.63;5005711;28;20029;-77
2023/03/04 10:49:55;;;;;;;61.08;31.05;;;;;;;8.95;nan;100580.66;5001766;28;20026;-77
2023/03/04 10:52:30;;;;;;;64.47;32.28;;;;;;;9.01;nan;100576.41;5004193;28;20084;-77
2023/03/04 10:55:03;;;;;;;59.60;30.23;;;;;;;9.14;nan;100585.00;4988503;28;20109;-77
2023/03/04 10:57:33;;;;;;;59.88;30.98;;;;;;;9.27;nan;100597.28;5004856;28;20117;-77
2023/03/04 11:00:01;;;;;;;55.28;29.10;;;;;;;9.24;nan;100579.31;5003318;28;20034;-77
2023/03/04 11:02:33;;;;;;;57.90;27.85;;;;;;;9.40;nan;100587.69;4995023;28;20956;-77
2023/03/04 11:05:14;;;;;;;53.88;28.52;;;;;;;9.47;nan;100588.47;5006140;28;20037;-76
2023/03/04 11:07:42;;;;;;;54.75;29.45;;;;;;;9.48;nan;100583.00;5003712;28;20133;-77
2023/03/04 11:10:14;;;;;;;55.35;29.25;;;;;;;9.56;nan;100574.84;5005898;28;20049;-77
2023/03/04 11:12:39;;;;;;;55.63;28.50;;;;;;;9.19;nan;100505.53;4989099;28;20041;-76
2023/03/04 11:15:18;;;;;;;52.13;28.13;;;;;;;9.54;nan;100555.03;5004098;28;20034;-77
2023/03/04 11:17:51;;;;;;;52.42;27.60;;;;;;;9.29;nan;100523.47;5003365;28;20173;-77
2023/03/04 11:20:16;;;;;;;46.17;26.38;;;;;;;9.64;nan;100565.06;5003227;28;20038;-76
2023/03/04 11:22:45;;;;;;;53.28;27.77;;;;;;;9.65;nan;100564.03;5006183;28;20030;-76
2023/03/04 11:25:26;;;;;;;55.33;28.88;;;;;;;9.66;nan;100555.16;5005933;28;20029;-77
2023/03/04 11:27:57;;;;;;;52.15;26.90;;;;;;;9.69;nan;100552.09;4989498;28;20080;-76
2023/03/04 11:30:34;;;;;;;49.00;25.05;;;;;;;9.72;nan;100544.59;5001681;28;20026;-77